首页
METAR-TAF:

METAR-TAF

机场 :

凯奇凯梅特, 匈牙利

纬度: 46-55N, 经度: 019-45E, 海拔: 113米

当前天气观测

该预报发布于32分钟前的00:45 UTC
风速6节,风向东转东北
温度 7°C
湿度 100%
气压 1019 hPa
能見度: 4000
少量云层高于8300英尺
多云层高于20000英尺
轻雾

METAR: LHKE 200045Z 06006KT 4000 BR FEW083 BKN200 07/07 Q1019 BECMG 3000 RMK GRN

时间: 02:17 (01:17 UTC)

预报

该预报发布于2小时和2分钟前的23:15 UTC
预报有效从20日的 00点(UTC)到 20日的 09点(UTC)
风速5节,风向
能見度: 6000
短暂存在
从 20日的 00点(UTC)到 20日的 06点(UTC)
能見度: 3000
轻雾
几率 40% :
短暂存在
从 20日的 00点(UTC)到 20日的 06点(UTC)
能見度: 1500
多云层高于4000英尺
多云层高于8300英尺
轻雾
成为
从 20日的 06点(UTC)到 20日的 09点(UTC)
风速9节,风向东转东北
能见度10公里或以上
散云层高于4000英尺
多云层高于8300英尺

TAF: LHKE 192315Z 2000/2009 08005KT 6000 NSC TEMPO 2000/2006 3000 BR MIBCFG PROB40 TEMPO 2000/2006 1500 BR BKN040 BKN083 BECMG 2006/2009 06009KT 9999 SCT040 BKN083

超过4000个机场的气象观测和天气预报(METAR&TAF报告)。

可查询的气象台以黄色和红色小点在地图上表示。

将鼠标移到小点上方,可查看气象台名称。

然后点击查看天气观测和预报。

如需切换地图:点击带黑十字的绿色按钮放大地图;点击带横线的绿色按钮缩小地图;或者点击绿色箭头查看邻近地区的地图。


METAR-TAF: